Time,TemperatureF,DewpointF,PressureIn,WindDirection,WindDirectionDegrees,WindSpeedMPH,WindSpeedGustMPH,Humidity,HourlyPrecipIn,Conditions,Clouds,dailyrainin,SoftwareType,DateUTC
2013-02-26 00:01:00,40.6,34.0,29.66,SE,135,0.0,0.0,77,0.00,CLR,,0.00,WeatherDisplay:10.37,2013-02-26 08:01:00,
2013-02-26 00:06:00,40.6,34.0,29.65,SW,225,0.0,0.0,77,0.00,CLR,,0.00,WeatherDisplay:10.37,2013-02-26 08:06:00,
2013-02-26 00:11:00,40.5,34.1,29.65,SW,225,0.0,0.0,78,0.00,CLR,,0.00,WeatherDisplay:10.37,2013-02-26 08:11:00,
2013-02-26 00:16:00,40.5,34.5,29.65,SE,135,0.0,0.0,79,0.00,CLR,,0.00,WeatherDisplay:10.37,2013-02-26 08:16:00,
2013-02-26 00:21:00,40.3,34.3,29.65,South,180,0.0,0.0,79,0.00,CLR,,0.00,WeatherDisplay:10.37,2013-02-26 08:21:00,
2013-02-26 00:26:00,40.1,34.1,29.65,SE,135,0.0,0.0,79,0.00,CLR,,0.00,WeatherDisplay:10.37,2013-02-26 08:26:00,
2013-02-26 00:31:00,40.1,34.1,29.65,SW,225,0.0,0.0,79,0.00,CLR,,0.00,WeatherDisplay:10.37,2013-02-26 08:31:00,
2013-02-26 00:36:00,39.9,33.9,29.65,West,270,0.0,0.0,79,0.00,CLR,,0.00,WeatherDisplay:10.37,2013-02-26 08:36:00,
2013-02-26 00:41:00,39.6,33.9,29.65,SW,225,0.0,0.0,80,0.00,CLR,,0.00,WeatherDisplay:10.37,2013-02-26 08:41:00,
2013-02-26 00:46:00,39.4,33.7,29.65,West,270,0.0,0.0,80,0.00,CLR,,0.00,WeatherDisplay:10.37,2013-02-26 08:46:00,
2013-02-26 00:51:00,39.2,33.5,29.66,South,180,0.0,0.0,80,0.00,CLR,,0.00,WeatherDisplay:10.37,2013-02-26 08:51:00,
2013-02-26 00:56:00,39.0,33.4,29.65,SE,135,0.0,0.0,80,0.00,CLR,,0.00,WeatherDisplay:10.37,2013-02-26 08:56:00,
2013-02-26 01:01:00,38.8,33.2,29.66,East,90,0.0,0.0,80,0.00,CLR,,0.00,WeatherDisplay:10.37,2013-02-26 09:01:00,
2013-02-26 01:06:00,38.7,33.3,29.66,South,180,0.0,0.0,81,0.00,CLR,,0.00,WeatherDisplay:10.37,2013-02-26 09:06:00,
2013-02-26 01:11:00,38.5,33.2,29.66,SE,135,0.0,0.0,81,0.00,CLR,,0.00,WeatherDisplay:10.37,2013-02-26 09:11:00,
2013-02-26 01:16:00,38.3,33.0,29.66,SSE,158,0.0,0.0,81,0.00,CLR,,0.00,WeatherDisplay:10.37,2013-02-26 09:16:00,
2013-02-26 01:21:00,38.3,33.3,29.66,East,90,0.0,0.0,82,0.00,CLR,,0.00,WeatherDisplay:10.37,2013-02-26 09:21:00,
2013-02-26 01:26:00,38.1,33.1,29.66,SE,135,0.0,0.0,82,0.00,CLR,,0.00,WeatherDisplay:10.37,2013-02-26 09:26:00,
2013-02-26 01:31:00,37.9,32.9,29.67,West,270,0.0,0.0,82,0.00,CLR,,0.00,WeatherDisplay:10.37,2013-02-26 09:31:00,
2013-02-26 01:36:00,37.8,32.8,29.67,South,180,0.0,0.0,82,0.00,CLR,,0.00,WeatherDisplay:10.37,2013-02-26 09:36:00,
2013-02-26 01:41:00,37.8,33.1,29.67,NW,315,0.0,0.0,83,0.00,CLR,,0.00,WeatherDisplay:10.37,2013-02-26 09:41:00,
2013-02-26 01:46:00,37.6,32.9,29.67,South,180,0.0,0.0,83,0.00,CLR,,0.00,WeatherDisplay:10.37,2013-02-26 09:46:00,
2013-02-26 01:51:00,37.4,32.7,29.67,South,180,0.0,0.0,83,0.00,CLR,,0.00,WeatherDisplay:10.37,2013-02-26 09:51:00,
2013-02-26 01:56:00,37.0,32.4,29.67,North,0,0.0,0.0,83,0.00,CLR,,0.00,WeatherDisplay:10.37,2013-02-26 09:56:00,
2013-02-26 02:01:00,37.0,32.7,29.67,North,0,0.0,0.0,84,0.00,CLR,,0.00,WeatherDisplay:10.37,2013-02-26 10:01:00,
2013-02-26 02:06:00,37.0,32.7,29.67,South,180,0.0,0.0,84,0.00,CLR,,0.00,WeatherDisplay:10.37,2013-02-26 10:06:00,
2013-02-26 02:11:00,37.0,32.9,29.67,SE,135,0.0,0.0,85,0.00,CLR,,0.00,WeatherDisplay:10.37,2013-02-26 10:11:00,
2013-02-26 02:16:00,36.9,32.8,29.67,East,90,0.0,0.0,85,0.00,CLR,,0.00,WeatherDisplay:10.37,2013-02-26 10:16:00,
2013-02-26 02:21:00,36.9,32.8,29.67,SE,135,0.0,0.0,85,0.00,CLR,,0.00,WeatherDisplay:10.37,2013-02-26 10:21:00,
2013-02-26 02:26:00,36.9,32.8,29.67,East,90,0.0,0.0,85,0.00,CLR,,0.00,WeatherDisplay:10.37,2013-02-26 10:26:00,
2013-02-26 02:31:00,36.9,32.8,29.67,East,90,0.0,0.0,85,0.00,CLR,,0.00,WeatherDisplay:10.37,2013-02-26 10:31:00,
2013-02-26 02:36:00,36.9,32.8,29.67,SE,135,0.0,0.0,85,0.00,CLR,,0.00,WeatherDisplay:10.37,2013-02-26 10:36:00,
2013-02-26 02:41:00,36.7,32.6,29.67,South,180,0.0,0.0,85,0.00,CLR,,0.00,WeatherDisplay:10.37,2013-02-26 10:41:00,
2013-02-26 02:46:00,36.7,32.9,29.67,NE,45,0.0,0.0,86,0.00,CLR,,0.00,WeatherDisplay:10.37,2013-02-26 10:46:00,
2013-02-26 02:51:00,36.7,32.9,29.67,East,90,0.0,0.0,86,0.00,CLR,,0.00,WeatherDisplay:10.37,2013-02-26 10:51:00,
2013-02-26 02:56:00,36.7,32.9,29.67,NW,315,0.0,0.0,86,0.00,CLR,,0.00,WeatherDisplay:10.37,2013-02-26 10:56:00,
2013-02-26 03:01:00,36.7,32.9,29.67,East,90,0.0,0.0,86,0.00,CLR,,0.00,WeatherDisplay:10.37,2013-02-26 11:01:00,
2013-02-26 03:06:00,36.7,32.9,29.67,East,90,0.0,0.0,86,0.00,CLR,,0.00,WeatherDisplay:10.37,2013-02-26 11:06:00,
2013-02-26 03:11:00,36.7,32.9,29.67,South,180,0.0,0.0,86,0.00,CLR,,0.00,WeatherDisplay:10.37,2013-02-26 11:11:00,
2013-02-26 03:16:00,36.5,32.7,29.68,East,90,0.0,0.0,86,0.00,CLR,,0.00,WeatherDisplay:10.37,2013-02-26 11:16:00,
2013-02-26 03:21:00,36.5,32.7,29.68,East,90,0.0,0.0,86,0.00,CLR,,0.00,WeatherDisplay:10.37,2013-02-26 11:21:00,
2013-02-26 03:26:00,36.5,32.7,29.68,North,0,0.0,0.0,86,0.00,CLR,,0.00,WeatherDisplay:10.37,2013-02-26 11:26:00,
2013-02-26 03:31:00,36.5,32.7,29.68,SW,225,0.0,0.0,86,0.00,CLR,,0.00,WeatherDisplay:10.37,2013-02-26 11:31:00,
2013-02-26 03:36:00,36.5,32.7,29.67,East,90,0.0,0.0,86,0.00,CLR,,0.00,WeatherDisplay:10.37,2013-02-26 11:36:00,
2013-02-26 03:41:00,36.5,32.7,29.68,South,180,0.0,0.0,86,0.00,CLR,,0.00,WeatherDisplay:10.37,2013-02-26 11:41:00,
2013-02-26 03:46:00,36.5,32.7,29.68,SE,135,0.0,0.0,86,0.00,CLR,,0.00,WeatherDisplay:10.37,2013-02-26 11:46:00,
2013-02-26 03:51:00,36.5,33.0,29.67,East,90,0.0,0.0,87,0.00,CLR,,0.00,WeatherDisplay:10.37,2013-02-26 11:51:00,
2013-02-26 03:56:00,36.5,33.0,29.67,NW,315,0.0,0.0,87,0.00,CLR,,0.00,WeatherDisplay:10.37,2013-02-26 11:56:00,
2013-02-26 04:01:00,36.5,33.0,29.67,SE,135,0.0,0.0,87,0.00,CLR,,0.00,WeatherDisplay:10.37,2013-02-26 12:01:00,
2013-02-26 04:06:00,36.5,33.0,29.68,ENE,68,0.0,0.0,87,0.00,CLR,,0.00,WeatherDisplay:10.37,2013-02-26 12:06:00,
2013-02-26 04:11:00,36.5,33.0,29.67,SW,225,0.0,0.0,87,0.00,CLR,,0.00,WeatherDisplay:10.37,2013-02-26 12:11:00,
2013-02-26 04:17:00,36.5,33.0,29.67,SE,135,0.0,0.0,87,0.00,CLR,,0.00,WeatherDisplay:10.37,2013-02-26 12:17:00,
2013-02-26 04:22:00,36.7,33.2,29.67,SE,135,0.0,0.0,87,0.00,CLR,,0.00,WeatherDisplay:10.37,2013-02-26 12:22:00,
2013-02-26 04:27:00,36.7,33.2,29.68,SE,135,0.0,0.0,87,0.00,CLR,,0.00,WeatherDisplay:10.37,2013-02-26 12:27:00,
2013-02-26 04:32:00,36.7,33.2,29.68,SW,225,0.0,0.0,87,0.00,CLR,,0.00,WeatherDisplay:10.37,2013-02-26 12:32:00,
2013-02-26 04:37:00,36.7,33.2,29.68,NE,45,0.0,0.0,87,0.00,CLR,,0.00,WeatherDisplay:10.37,2013-02-26 12:37:00,
2013-02-26 04:42:00,37.0,33.5,29.68,South,180,0.0,0.0,87,0.00,CLR,,0.00,WeatherDisplay:10.37,2013-02-26 12:42:00,
2013-02-26 04:47:00,37.0,33.2,29.68,NE,45,0.0,0.0,86,0.00,CLR,,0.00,WeatherDisplay:10.37,2013-02-26 12:47:00,
2013-02-26 04:52:00,37.2,33.4,29.68,SW,225,0.0,0.0,86,0.00,CLR,,0.00,WeatherDisplay:10.37,2013-02-26 12:52:00,
2013-02-26 04:57:00,37.2,33.4,29.68,SE,135,0.0,0.0,86,0.00,CLR,,0.00,WeatherDisplay:10.37,2013-02-26 12:57:00,
2013-02-26 05:02:00,37.2,33.4,29.69,East,90,0.0,0.0,86,0.00,CLR,,0.00,WeatherDisplay:10.37,2013-02-26 13:02:00,
2013-02-26 05:07:00,37.4,33.6,29.68,SW,225,0.0,0.0,86,0.00,CLR,,0.00,WeatherDisplay:10.37,2013-02-26 13:07:00,
2013-02-26 05:12:00,37.4,33.3,29.69,NW,315,0.0,0.0,85,0.00,CLR,,0.00,WeatherDisplay:10.37,2013-02-26 13:12:00,
2013-02-26 05:17:00,37.6,33.5,29.69,East,90,0.0,0.0,85,0.00,CLR,,0.00,WeatherDisplay:10.37,2013-02-26 13:17:00,
2013-02-26 05:22:00,37.6,33.5,29.69,SE,135,0.0,0.0,85,0.00,CLR,,0.00,WeatherDisplay:10.37,2013-02-26 13:22:00,
2013-02-26 05:27:00,37.6,33.5,29.68,South,180,0.0,0.0,85,0.00,CLR,,0.00,WeatherDisplay:10.37,2013-02-26 13:27:00,
2013-02-26 05:32:00,37.6,33.5,29.69,SE,135,0.0,0.0,85,0.00,CLR,,0.00,WeatherDisplay:10.37,2013-02-26 13:32:00,
2013-02-26 05:37:00,37.6,33.5,29.69,East,90,0.0,0.0,85,0.00,CLR,,0.00,WeatherDisplay:10.37,2013-02-26 13:37:00,
2013-02-26 05:42:00,37.6,33.5,29.68,SE,135,0.0,0.0,85,0.00,CLR,,0.00,WeatherDisplay:10.37,2013-02-26 13:42:00,
2013-02-26 05:47:00,37.8,33.7,29.69,South,180,0.0,0.0,85,0.00,CLR,,0.00,WeatherDisplay:10.37,2013-02-26 13:47:00,
2013-02-26 05:52:00,37.8,33.7,29.69,SE,135,0.0,0.0,85,0.00,CLR,,0.00,WeatherDisplay:10.37,2013-02-26 13:52:00,
2013-02-26 05:57:00,37.8,33.7,29.68,SE,135,0.0,0.0,85,0.00,CLR,,0.00,WeatherDisplay:10.37,2013-02-26 13:57:00,
2013-02-26 06:02:00,37.8,33.7,29.69,SE,135,0.0,0.0,85,0.00,CLR,,0.00,WeatherDisplay:10.37,2013-02-26 14:02:00,
2013-02-26 06:07:00,37.9,33.5,29.68,East,90,0.0,0.0,84,0.00,CLR,,0.00,WeatherDisplay:10.37,2013-02-26 14:07:00,
2013-02-26 06:12:00,37.9,33.5,29.69,SE,135,0.0,0.0,84,0.00,CLR,,0.00,WeatherDisplay:10.37,2013-02-26 14:12:00,
2013-02-26 06:17:00,37.9,33.5,29.69,NW,315,0.0,0.0,84,0.00,CLR,,0.00,WeatherDisplay:10.37,2013-02-26 14:17:00,
2013-02-26 06:22:00,37.8,33.4,29.69,SE,135,0.0,0.0,84,0.00,CLR,,0.00,WeatherDisplay:10.37,2013-02-26 14:22:00,
2013-02-26 06:27:00,37.8,33.4,29.69,North,0,0.0,0.0,84,0.00,CLR,,0.00,WeatherDisplay:10.37,2013-02-26 14:27:00,
2013-02-26 06:32:00,37.8,33.4,29.69,South,180,0.0,0.0,84,0.00,CLR,,0.00,WeatherDisplay:10.37,2013-02-26 14:32:00,
2013-02-26 06:37:00,37.8,33.4,29.69,East,90,0.0,0.0,84,0.00,CLR,,0.00,WeatherDisplay:10.37,2013-02-26 14:37:00,
2013-02-26 06:42:00,37.9,33.5,29.69,NE,45,0.0,0.0,84,0.00,CLR,,0.00,WeatherDisplay:10.37,2013-02-26 14:42:00,
2013-02-26 06:47:00,37.8,33.4,29.69,NE,45,0.0,0.0,84,0.00,CLR,,0.00,WeatherDisplay:10.37,2013-02-26 14:47:00,
2013-02-26 06:52:00,37.8,33.1,29.69,East,90,0.0,0.0,83,0.00,CLR,,0.00,WeatherDisplay:10.37,2013-02-26 14:52:00,
2013-02-26 06:57:00,37.8,33.4,29.69,South,180,0.0,0.0,84,0.00,CLR,,0.00,WeatherDisplay:10.37,2013-02-26 14:57:00,
2013-02-26 07:02:00,37.9,33.2,29.69,South,180,0.0,0.0,83,0.00,CLR,,0.00,WeatherDisplay:10.37,2013-02-26 15:02:00,
2013-02-26 07:07:00,37.9,33.2,29.69,NE,45,0.0,0.0,83,0.00,CLR,,0.00,WeatherDisplay:10.37,2013-02-26 15:07:00,
2013-02-26 07:12:00,37.9,33.2,29.69,SE,135,0.0,0.0,83,0.00,CLR,,0.00,WeatherDisplay:10.37,2013-02-26 15:12:00,
2013-02-26 07:17:00,38.1,33.4,29.69,SE,135,0.0,0.0,83,0.00,CLR,,0.00,WeatherDisplay:10.37,2013-02-26 15:17:00,
2013-02-26 07:22:00,38.1,33.4,29.69,NE,45,0.0,0.0,83,0.00,CLR,,0.00,WeatherDisplay:10.37,2013-02-26 15:22:00,
2013-02-26 07:27:00,38.3,33.6,29.69,SE,135,0.0,0.0,83,0.00,CLR,,0.00,WeatherDisplay:10.37,2013-02-26 15:27:00,
2013-02-26 07:32:00,38.3,33.6,29.69,NW,315,0.0,0.0,83,0.00,CLR,,0.00,WeatherDisplay:10.37,2013-02-26 15:32:00,
2013-02-26 07:37:00,38.3,33.6,29.69,SE,135,0.0,0.0,83,0.00,CLR,,0.00,WeatherDisplay:10.37,2013-02-26 15:37:00,
2013-02-26 07:42:00,38.5,33.8,29.69,East,90,0.0,0.0,83,0.00,CLR,,0.00,WeatherDisplay:10.37,2013-02-26 15:42:00,
2013-02-26 07:47:00,38.7,33.9,29.69,East,90,0.0,0.0,83,0.00,CLR,,0.00,WeatherDisplay:10.37,2013-02-26 15:47:00,
2013-02-26 07:52:00,38.8,34.1,29.69,North,0,0.0,0.0,83,0.00,CLR,,0.00,WeatherDisplay:10.37,2013-02-26 15:52:00,
2013-02-26 07:57:00,39.0,34.3,29.69,NW,315,0.0,0.0,83,0.00,CLR,,0.00,WeatherDisplay:10.37,2013-02-26 15:57:00,
2013-02-26 08:02:00,39.2,34.5,29.69,South,180,0.0,0.0,83,0.00,CLR,,0.00,WeatherDisplay:10.37,2013-02-26 16:02:00,
2013-02-26 08:07:00,39.2,34.2,29.69,South,180,0.0,0.0,82,0.00,CLR,,0.00,WeatherDisplay:10.37,2013-02-26 16:07:00,
2013-02-26 08:12:00,39.4,34.3,29.69,NE,45,0.0,0.0,82,0.00,CLR,,0.00,WeatherDisplay:10.37,2013-02-26 16:12:00,
2013-02-26 08:17:00,39.6,34.5,29.70,East,90,0.0,0.0,82,0.00,CLR,,0.00,WeatherDisplay:10.37,2013-02-26 16:17:00,
2013-02-26 08:22:00,39.9,34.9,29.70,SE,135,0.0,0.0,82,0.00,CLR,,0.00,WeatherDisplay:10.37,2013-02-26 16:22:00,
2013-02-26 08:27:00,39.9,34.6,29.70,South,180,0.0,0.0,81,0.00,CLR,,0.00,WeatherDisplay:10.37,2013-02-26 16:27:00,
2013-02-26 08:32:00,40.1,34.7,29.70,North,0,0.0,0.0,81,0.00,CLR,,0.00,WeatherDisplay:10.37,2013-02-26 16:32:00,
2013-02-26 08:37:00,40.1,34.7,29.70,SE,135,0.0,0.0,81,0.00,CLR,,0.00,WeatherDisplay:10.37,2013-02-26 16:37:00,
2013-02-26 08:42:00,40.3,34.9,29.70,NE,45,0.0,0.0,81,0.00,CLR,,0.00,WeatherDisplay:10.37,2013-02-26 16:42:00,
2013-02-26 08:47:00,40.5,35.1,29.70,NE,45,0.0,0.0,81,0.00,CLR,,0.00,WeatherDisplay:10.37,2013-02-26 16:47:00,
2013-02-26 08:52:00,40.6,35.6,29.69,SW,225,0.0,0.0,82,0.00,CLR,,0.00,WeatherDisplay:10.37,2013-02-26 16:52:00,
2013-02-26 08:57:00,41.0,35.9,29.70,NW,315,0.0,0.0,82,0.00,CLR,,0.00,WeatherDisplay:10.37,2013-02-26 16:57:00,
2013-02-26 09:02:00,41.2,36.1,29.70,East,90,0.0,0.0,82,0.00,CLR,,0.00,WeatherDisplay:10.37,2013-02-26 17:02:00,
2013-02-26 09:07:00,41.2,36.1,29.70,NW,315,0.0,0.0,82,0.00,CLR,,0.00,WeatherDisplay:10.37,2013-02-26 17:07:00,
2013-02-26 09:12:00,41.9,36.8,29.69,NE,45,0.0,0.0,82,0.00,CLR,,0.00,WeatherDisplay:10.37,2013-02-26 17:12:00,
2013-02-26 09:17:00,43.0,37.5,29.69,South,180,0.0,0.0,81,0.00,CLR,,0.00,WeatherDisplay:10.37,2013-02-26 17:17:00,
2013-02-26 09:22:00,43.5,36.8,29.69,South,180,0.0,0.0,77,0.00,CLR,,0.00,WeatherDisplay:10.37,2013-02-26 17:22:00,
2013-02-26 09:27:00,44.2,37.8,29.69,North,0,0.0,0.0,78,0.00,CLR,,0.00,WeatherDisplay:10.37,2013-02-26 17:27:00,
2013-02-26 09:32:00,44.4,37.3,29.69,West,270,0.0,0.0,76,0.00,CLR,,0.00,WeatherDisplay:10.37,2013-02-26 17:32:00,
2013-02-26 09:37:00,45.0,37.8,29.69,SSE,158,0.0,0.0,76,0.00,CLR,,0.00,WeatherDisplay:10.37,2013-02-26 17:37:00,
2013-02-26 09:42:00,45.9,38.4,29.69,South,180,0.0,0.0,75,0.00,CLR,,0.00,WeatherDisplay:10.37,2013-02-26 17:42:00,
2013-02-26 09:47:00,46.9,38.7,29.68,NE,45,0.0,0.0,73,0.00,CLR,,0.00,WeatherDisplay:10.37,2013-02-26 17:47:00,
2013-02-26 09:53:00,45.9,37.0,29.68,East,90,0.0,0.0,71,0.00,CLR,,0.00,WeatherDisplay:10.37,2013-02-26 17:53:00,
2013-02-26 09:58:00,45.3,36.8,29.68,South,180,0.0,0.0,72,0.00,CLR,,0.00,WeatherDisplay:10.37,2013-02-26 17:58:00,
2013-02-26 10:03:00,44.8,36.7,29.68,South,180,0.0,0.0,73,0.00,CLR,,0.00,WeatherDisplay:10.37,2013-02-26 18:03:00,
2013-02-26 10:08:00,44.2,36.1,29.67,WSW,248,0.0,0.0,73,0.00,CLR,,0.00,WeatherDisplay:10.37,2013-02-26 18:08:00,
2013-02-26 10:13:00,44.1,36.0,29.67,South,180,0.0,0.0,73,0.00,CLR,,0.00,WeatherDisplay:10.37,2013-02-26 18:13:00,
2013-02-26 10:18:00,44.2,36.5,29.67,South,180,0.0,0.0,74,0.00,CLR,,0.00,WeatherDisplay:10.37,2013-02-26 18:18:00,
2013-02-26 10:23:00,44.4,36.6,29.67,SE,135,0.0,0.0,74,0.00,CLR,,0.00,WeatherDisplay:10.37,2013-02-26 18:23:00,
2013-02-26 10:28:00,44.4,36.3,29.67,SE,135,0.0,0.0,73,0.00,CLR,,0.00,WeatherDisplay:10.37,2013-02-26 18:28:00,
2013-02-26 10:33:00,44.6,36.5,29.67,East,90,0.0,0.0,73,0.00,CLR,,0.00,WeatherDisplay:10.37,2013-02-26 18:33:00,
2013-02-26 10:38:00,44.4,35.6,29.67,South,180,0.0,0.0,71,0.00,CLR,,0.00,WeatherDisplay:10.37,2013-02-26 18:38:00,
2013-02-26 10:43:00,44.4,36.0,29.67,SE,135,0.0,0.0,72,0.00,CLR,,0.00,WeatherDisplay:10.37,2013-02-26 18:43:00,
2013-02-26 10:48:00,44.2,35.4,29.67,SE,135,0.0,0.0,71,0.00,CLR,,0.00,WeatherDisplay:10.37,2013-02-26 18:48:00,
2013-02-26 10:53:00,44.6,36.1,29.67,North,0,0.0,0.0,72,0.00,CLR,,0.00,WeatherDisplay:10.37,2013-02-26 18:53:00,
2013-02-26 10:58:00,44.8,35.9,29.67,SE,135,0.0,0.0,71,0.00,CLR,,0.00,WeatherDisplay:10.37,2013-02-26 18:58:00,
2013-02-26 11:03:00,45.3,36.1,29.66,South,180,0.0,0.0,70,0.00,CLR,,0.00,WeatherDisplay:10.37,2013-02-26 19:03:00,
2013-02-26 11:08:00,45.3,35.7,29.66,SE,135,0.0,0.0,69,0.00,CLR,,0.00,WeatherDisplay:10.37,2013-02-26 19:08:00,
2013-02-26 11:13:00,45.3,35.7,29.66,East,90,0.0,0.0,69,0.00,CLR,,0.00,WeatherDisplay:10.37,2013-02-26 19:13:00,
2013-02-26 11:18:00,45.0,35.4,29.66,NE,45,0.0,0.0,69,0.00,CLR,,0.00,WeatherDisplay:10.37,2013-02-26 19:18:00,
2013-02-26 11:23:00,44.6,35.1,29.65,East,90,0.0,0.0,69,0.00,CLR,,0.00,WeatherDisplay:10.37,2013-02-26 19:23:00,
2013-02-26 11:28:00,44.6,35.1,29.65,SE,135,0.0,0.0,69,0.00,CLR,,0.00,WeatherDisplay:10.37,2013-02-26 19:28:00,
2013-02-26 11:33:00,44.6,35.1,29.65,SW,225,0.0,0.0,69,0.00,CLR,,0.00,WeatherDisplay:10.37,2013-02-26 19:33:00,
2013-02-26 11:38:00,44.6,35.4,29.65,South,180,0.0,0.0,70,0.00,CLR,,0.00,WeatherDisplay:10.37,2013-02-26 19:38:00,
2013-02-26 11:43:00,45.0,35.8,29.65,East,90,0.0,0.0,70,0.00,CLR,,0.00,WeatherDisplay:10.37,2013-02-26 19:43:00,
2013-02-26 11:48:00,45.3,35.7,29.65,SW,225,0.0,0.0,69,0.00,CLR,,0.00,WeatherDisplay:10.37,2013-02-26 19:48:00,
2013-02-26 11:53:00,45.7,35.7,29.65,SW,225,0.0,0.0,68,0.00,CLR,,0.00,WeatherDisplay:10.37,2013-02-26 19:53:00,
2013-02-26 11:58:00,45.7,35.3,29.65,SE,135,0.0,0.0,67,0.00,CLR,,0.00,WeatherDisplay:10.37,2013-02-26 19:58:00,
2013-02-26 12:03:00,45.9,35.1,29.64,SE,135,0.0,0.0,66,0.00,CLR,,0.00,WeatherDisplay:10.37,2013-02-26 20:03:00,
2013-02-26 12:08:00,46.2,35.9,29.64,West,270,0.0,0.0,67,0.00,CLR,,0.00,WeatherDisplay:10.37,2013-02-26 20:08:00,
2013-02-26 12:13:00,46.4,35.7,29.64,North,0,0.0,0.0,66,0.00,CLR,,0.00,WeatherDisplay:10.37,2013-02-26 20:13:00,
2013-02-26 12:18:00,46.2,35.1,29.64,SW,225,0.0,0.0,65,0.00,CLR,,0.00,WeatherDisplay:10.37,2013-02-26 20:18:00,
2013-02-26 12:23:00,46.0,34.9,29.63,SW,225,0.0,0.0,65,0.00,CLR,,0.00,WeatherDisplay:10.37,2013-02-26 20:23:00,
2013-02-26 12:28:00,46.2,35.1,29.63,SW,225,0.0,0.0,65,0.00,CLR,,0.00,WeatherDisplay:10.37,2013-02-26 20:28:00,
2013-02-26 12:33:00,46.6,35.4,29.63,NW,315,0.0,0.0,65,0.00,CLR,,0.00,WeatherDisplay:10.37,2013-02-26 20:33:00,
2013-02-26 12:38:00,46.8,35.6,29.63,South,180,0.0,0.0,65,0.00,CLR,,0.00,WeatherDisplay:10.37,2013-02-26 20:38:00,
2013-02-26 12:43:00,46.9,35.8,29.62,SW,225,0.0,0.0,65,0.00,CLR,,0.00,WeatherDisplay:10.37,2013-02-26 20:43:00,
2013-02-26 12:48:00,46.8,34.8,29.62,SE,135,0.0,0.0,63,0.00,CLR,,0.00,WeatherDisplay:10.37,2013-02-26 20:48:00,
2013-02-26 12:53:00,46.8,35.2,29.62,NE,45,0.0,0.0,64,0.00,CLR,,0.00,WeatherDisplay:10.37,2013-02-26 20:53:00,
2013-02-26 12:58:00,46.8,34.4,29.62,SW,225,0.0,0.0,62,0.00,CLR,,0.00,WeatherDisplay:10.37,2013-02-26 20:58:00,
2013-02-26 13:03:00,46.9,35.0,29.61,SE,135,0.0,0.0,63,0.00,CLR,,0.00,WeatherDisplay:10.37,2013-02-26 21:03:00,
2013-02-26 13:08:00,47.1,34.8,29.61,SE,135,0.0,0.0,62,0.00,CLR,,0.00,WeatherDisplay:10.37,2013-02-26 21:08:00,
2013-02-26 13:13:00,47.1,34.8,29.61,East,90,0.0,0.0,62,0.00,CLR,,0.00,WeatherDisplay:10.37,2013-02-26 21:13:00,
2013-02-26 13:18:00,47.3,34.5,29.62,West,270,0.0,0.0,61,0.00,CLR,,0.00,WeatherDisplay:10.37,2013-02-26 21:18:00,
2013-02-26 13:23:00,47.3,34.5,29.61,East,90,0.0,0.0,61,0.00,CLR,,0.00,WeatherDisplay:10.37,2013-02-26 21:23:00,
2013-02-26 13:28:00,47.1,34.4,29.62,South,180,0.0,0.0,61,0.00,CLR,,0.00,WeatherDisplay:10.37,2013-02-26 21:28:00,
2013-02-26 13:33:00,47.3,34.1,29.61,East,90,0.0,0.0,60,0.00,CLR,,0.00,WeatherDisplay:10.37,2013-02-26 21:33:00,
2013-02-26 13:38:00,47.3,34.1,29.61,WNW,292,0.0,0.0,60,0.00,CLR,,0.00,WeatherDisplay:10.37,2013-02-26 21:38:00,
2013-02-26 13:43:00,47.3,34.1,29.61,SW,225,0.0,0.0,60,0.00,CLR,,0.00,WeatherDisplay:10.37,2013-02-26 21:43:00,
2013-02-26 13:48:00,47.1,33.5,29.60,SW,225,0.0,0.0,59,0.00,CLR,,0.00,WeatherDisplay:10.37,2013-02-26 21:48:00,
2013-02-26 13:53:00,46.9,33.8,29.60,SE,135,0.0,0.0,60,0.00,CLR,,0.00,WeatherDisplay:10.37,2013-02-26 21:53:00,
2013-02-26 13:58:00,46.9,33.8,29.60,North,0,0.0,0.0,60,0.00,CLR,,0.00,WeatherDisplay:10.37,2013-02-26 21:58:00,
2013-02-26 14:03:00,46.9,33.3,29.60,SE,135,0.0,0.0,59,0.00,CLR,,0.00,WeatherDisplay:10.37,2013-02-26 22:03:00,
2013-02-26 14:08:00,46.6,33.4,29.60,SE,135,0.0,0.0,60,0.00,CLR,,0.00,WeatherDisplay:10.37,2013-02-26 22:08:00,
2013-02-26 14:13:00,46.6,33.0,29.60,South,180,0.0,0.0,59,0.00,CLR,,0.00,WeatherDisplay:10.37,2013-02-26 22:13:00,
2013-02-26 14:18:00,46.6,33.0,29.60,NE,45,0.0,0.0,59,0.00,CLR,,0.00,WeatherDisplay:10.37,2013-02-26 22:18:00,
2013-02-26 14:23:00,46.4,33.3,29.60,SW,225,0.0,0.0,60,0.00,CLR,,0.00,WeatherDisplay:10.37,2013-02-26 22:23:00,
2013-02-26 14:28:00,46.4,33.3,29.60,SW,225,0.0,0.0,60,0.00,CLR,,0.00,WeatherDisplay:10.37,2013-02-26 22:28:00,
2013-02-26 14:33:00,46.4,33.3,29.59,SE,135,0.0,0.0,60,0.00,CLR,,0.00,WeatherDisplay:10.37,2013-02-26 22:33:00,
2013-02-26 14:38:00,46.6,33.0,29.59,SW,225,0.0,0.0,59,0.00,CLR,,0.00,WeatherDisplay:10.37,2013-02-26 22:38:00,
2013-02-26 14:43:00,46.4,33.3,29.59,West,270,0.0,0.0,60,0.00,CLR,,0.00,WeatherDisplay:10.37,2013-02-26 22:43:00,
2013-02-26 14:48:00,46.4,32.8,29.59,South,180,0.0,0.0,59,0.00,CLR,,0.00,WeatherDisplay:10.37,2013-02-26 22:48:00,
2013-02-26 14:53:00,46.4,32.8,29.59,SW,225,0.0,0.0,59,0.00,CLR,,0.00,WeatherDisplay:10.37,2013-02-26 22:53:00,
2013-02-26 14:58:00,46.4,32.8,29.59,South,180,0.0,0.0,59,0.00,CLR,,0.00,WeatherDisplay:10.37,2013-02-26 22:58:00,
2013-02-26 15:03:00,46.4,33.3,29.59,SW,225,0.0,0.0,60,0.00,CLR,,0.00,WeatherDisplay:10.37,2013-02-26 23:03:00,
2013-02-26 15:08:00,46.4,32.8,29.59,SE,135,0.0,0.0,59,0.00,CLR,,0.00,WeatherDisplay:10.37,2013-02-26 23:08:00,
2013-02-26 15:13:00,46.2,33.1,29.60,NE,45,0.0,0.0,60,0.00,CLR,,0.00,WeatherDisplay:10.37,2013-02-26 23:13:00,
2013-02-26 15:18:00,46.0,32.9,29.59,SE,135,0.0,0.0,60,0.00,CLR,,0.00,WeatherDisplay:10.37,2013-02-26 23:18:00,
2013-02-26 15:23:00,45.9,32.7,29.59,West,270,0.0,0.0,60,0.00,CLR,,0.00,WeatherDisplay:10.37,2013-02-26 23:23:00,
2013-02-26 15:29:00,45.9,32.7,29.59,NE,45,0.0,0.0,60,0.00,CLR,,0.00,WeatherDisplay:10.37,2013-02-26 23:29:00,
2013-02-26 15:34:00,45.7,33.0,29.59,South,180,0.0,0.0,61,0.00,CLR,,0.00,WeatherDisplay:10.37,2013-02-26 23:34:00,
2013-02-26 15:39:00,45.7,33.0,29.59,SE,135,0.0,0.0,61,0.00,CLR,,0.00,WeatherDisplay:10.37,2013-02-26 23:39:00,
2013-02-26 15:44:00,45.9,33.2,29.58,East,90,0.0,0.0,61,0.00,CLR,,0.00,WeatherDisplay:10.37,2013-02-26 23:44:00,
2013-02-26 15:49:00,45.7,33.0,29.58,NE,45,0.0,0.0,61,0.00,CLR,,0.00,WeatherDisplay:10.37,2013-02-26 23:49:00,
2013-02-26 15:54:00,45.7,33.0,29.57,SE,135,0.0,0.0,61,0.00,CLR,,0.00,WeatherDisplay:10.37,2013-02-26 23:54:00,
2013-02-26 15:59:00,45.5,32.8,29.57,West,270,0.0,0.0,61,0.00,CLR,,0.00,WeatherDisplay:10.37,2013-02-26 23:59:00,
2013-02-26 16:04:00,45.5,33.2,29.57,West,270,0.0,0.0,62,0.00,CLR,,0.00,WeatherDisplay:10.37,2013-02-27 00:04:00,
2013-02-26 16:09:00,45.3,32.7,29.57,NE,45,0.0,0.0,61,0.00,CLR,,0.00,WeatherDisplay:10.37,2013-02-27 00:09:00,
2013-02-26 16:14:00,45.3,33.1,29.57,SE,135,0.0,0.0,62,0.00,CLR,,0.00,WeatherDisplay:10.37,2013-02-27 00:14:00,
2013-02-26 16:19:00,45.1,32.9,29.57,SW,225,0.0,0.0,62,0.00,CLR,,0.00,WeatherDisplay:10.37,2013-02-27 00:19:00,
2013-02-26 16:24:00,45.1,32.9,29.57,South,180,0.0,0.0,62,0.00,CLR,,0.00,WeatherDisplay:10.37,2013-02-27 00:24:00,
2013-02-26 16:29:00,45.1,32.5,29.57,South,180,0.0,0.0,61,0.00,CLR,,0.00,WeatherDisplay:10.37,2013-02-27 00:29:00,
2013-02-26 16:34:00,45.1,32.9,29.57,SE,135,0.0,0.0,62,0.00,CLR,,0.00,WeatherDisplay:10.37,2013-02-27 00:34:00,
2013-02-26 16:39:00,45.0,32.7,29.57,NE,45,0.0,0.0,62,0.00,CLR,,0.00,WeatherDisplay:10.37,2013-02-27 00:39:00,
2013-02-26 16:44:00,45.0,32.7,29.57,East,90,0.0,0.0,62,0.00,CLR,,0.00,WeatherDisplay:10.37,2013-02-27 00:44:00,
2013-02-26 16:49:00,44.8,32.5,29.57,NW,315,0.0,0.0,62,0.00,CLR,,0.00,WeatherDisplay:10.37,2013-02-27 00:49:00,
2013-02-26 16:54:00,44.8,32.5,29.57,East,90,0.0,0.0,62,0.00,CLR,,0.00,WeatherDisplay:10.37,2013-02-27 00:54:00,
2013-02-26 16:59:00,44.8,32.5,29.57,South,180,0.0,0.0,62,0.00,CLR,,0.00,WeatherDisplay:10.37,2013-02-27 00:59:00,
2013-02-26 17:04:00,44.6,32.4,29.57,South,180,0.0,0.0,62,0.00,CLR,,0.00,WeatherDisplay:10.37,2013-02-27 01:04:00,
2013-02-26 17:09:00,44.6,32.8,29.57,NW,315,0.0,0.0,63,0.00,CLR,,0.00,WeatherDisplay:10.37,2013-02-27 01:09:00,
2013-02-26 17:14:00,44.6,32.8,29.57,SE,135,0.0,0.0,63,0.00,CLR,,0.00,WeatherDisplay:10.37,2013-02-27 01:14:00,
2013-02-26 17:19:00,44.4,32.6,29.57,SE,135,0.0,0.0,63,0.00,CLR,,0.00,WeatherDisplay:10.37,2013-02-27 01:19:00,
2013-02-26 17:24:00,44.4,32.6,29.57,East,90,0.0,0.0,63,0.00,CLR,,0.00,WeatherDisplay:10.37,2013-02-27 01:24:00,
2013-02-26 17:29:00,44.4,32.6,29.57,SE,135,0.0,0.0,63,0.00,CLR,,0.00,WeatherDisplay:10.37,2013-02-27 01:29:00,
2013-02-26 17:34:00,44.2,32.4,29.56,SE,135,0.0,0.0,63,0.00,CLR,,0.00,WeatherDisplay:10.37,2013-02-27 01:34:00,
2013-02-26 17:39:00,44.2,32.4,29.56,East,90,0.0,0.0,63,0.00,CLR,,0.00,WeatherDisplay:10.37,2013-02-27 01:39:00,
2013-02-26 17:44:00,44.2,32.4,29.56,SE,135,0.0,0.0,63,0.00,CLR,,0.00,WeatherDisplay:10.37,2013-02-27 01:44:00,
2013-02-26 17:49:00,44.2,32.4,29.56,NW,315,0.0,0.0,63,0.00,CLR,,0.00,WeatherDisplay:10.37,2013-02-27 01:49:00,
2013-02-26 17:54:00,44.2,32.4,29.55,West,270,0.0,0.0,63,0.00,CLR,,0.00,WeatherDisplay:10.37,2013-02-27 01:54:00,
2013-02-26 17:59:00,44.2,32.4,29.55,East,90,0.0,0.0,63,0.00,CLR,,0.00,WeatherDisplay:10.37,2013-02-27 01:59:00,
2013-02-26 18:04:00,44.1,32.3,29.57,South,180,0.0,0.0,63,0.00,CLR,,0.00,WeatherDisplay:10.37,2013-02-27 02:04:00,
2013-02-26 18:09:00,44.1,32.3,29.56,SW,225,0.0,0.0,63,0.00,CLR,,0.00,WeatherDisplay:10.37,2013-02-27 02:09:00,
2013-02-26 18:15:00,44.1,32.3,29.56,SW,225,0.0,0.0,63,0.00,CLR,,0.00,WeatherDisplay:10.37,2013-02-27 02:15:00,
2013-02-26 18:20:00,44.1,32.3,29.56,South,179,0.0,0.0,63,0.00,CLR,CLR,0.00,WeatherDisplay:10.37,2013-02-27 02:20:00,
2013-02-26 18:25:00,43.9,32.5,29.56,West,270,0.0,0.0,64,0.00,CLR,,0.00,WeatherDisplay:10.37,2013-02-27 02:25:00,
2013-02-26 18:30:00,43.9,32.5,29.56,ESE,114,0.0,0.0,64,0.00,CLR,CLR,0.00,WeatherDisplay:10.37,2013-02-27 02:30:00,
2013-02-26 18:35:00,43.9,32.5,29.56,South,180,0.0,0.0,64,0.00,CLR,,0.00,WeatherDisplay:10.37,2013-02-27 02:35:00,
2013-02-26 18:40:00,43.9,32.5,29.56,South,180,0.0,0.0,64,0.00,CLR,,0.00,WeatherDisplay:10.37,2013-02-27 02:40:00,
2013-02-26 18:45:00,43.7,32.7,29.55,SE,145,0.0,0.0,65,0.00,CLR,CLR,0.00,WeatherDisplay:10.37,2013-02-27 02:45:00,
2013-02-26 18:50:00,43.7,32.7,29.55,South,180,0.0,0.0,65,0.00,CLR,,0.00,WeatherDisplay:10.37,2013-02-27 02:50:00,
2013-02-26 18:55:00,43.7,32.7,29.56,East,81,0.0,0.0,65,0.00,CLR,CLR,0.00,WeatherDisplay:10.37,2013-02-27 02:55:00,
2013-02-26 19:00:00,43.7,32.7,29.56,East,90,0.0,0.0,65,0.00,CLR,,0.00,WeatherDisplay:10.37,2013-02-27 03:00:00,
2013-02-26 19:05:00,43.7,33.1,29.56,East,90,0.0,0.0,66,0.00,CLR,,0.00,WeatherDisplay:10.37,2013-02-27 03:05:00,
2013-02-26 19:10:00,43.7,33.1,29.56,SW,225,0.0,0.0,66,0.00,CLR,,0.00,WeatherDisplay:10.37,2013-02-27 03:10:00,
2013-02-26 19:15:00,43.7,33.1,29.56,SE,135,0.0,0.0,66,0.00,CLR,,0.00,WeatherDisplay:10.37,2013-02-27 03:15:00,
2013-02-26 19:20:00,43.5,33.7,29.56,East,90,0.0,0.0,68,0.00,CLR,,0.00,WeatherDisplay:10.37,2013-02-27 03:20:00,
2013-02-26 19:25:00,43.5,33.7,29.56,ENE,68,0.0,0.0,68,0.00,CLR,,0.00,WeatherDisplay:10.37,2013-02-27 03:25:00,
2013-02-26 19:30:00,43.3,33.8,29.56,East,90,0.0,0.0,69,0.00,CLR,,0.00,WeatherDisplay:10.37,2013-02-27 03:30:00,
2013-02-26 19:35:00,43.3,33.8,29.55,East,90,0.0,0.0,69,0.00,CLR,,0.00,WeatherDisplay:10.37,2013-02-27 03:35:00,
2013-02-26 19:40:00,43.3,33.5,29.55,SE,135,0.0,0.0,68,0.00,CLR,,0.00,WeatherDisplay:10.37,2013-02-27 03:40:00,
2013-02-26 19:45:00,43.3,33.8,29.55,NE,45,0.0,0.0,69,0.00,CLR,,0.00,WeatherDisplay:10.37,2013-02-27 03:45:00,
2013-02-26 19:50:00,43.3,33.5,29.55,South,180,0.0,0.0,68,0.00,CLR,,0.00,WeatherDisplay:10.37,2013-02-27 03:50:00,
2013-02-26 19:55:00,43.5,33.3,29.55,SE,135,0.0,0.0,67,0.00,CLR,,0.00,WeatherDisplay:10.37,2013-02-27 03:55:00,
2013-02-26 20:00:00,43.7,33.5,29.55,South,180,0.0,0.0,67,0.00,CLR,,0.00,WeatherDisplay:10.37,2013-02-27 04:00:00,
2013-02-26 20:05:00,43.7,33.1,29.55,SE,135,0.0,0.0,66,0.00,CLR,,0.00,WeatherDisplay:10.37,2013-02-27 04:05:00,
2013-02-26 20:10:00,43.7,33.1,29.56,SE,135,0.0,0.0,66,0.00,CLR,,0.00,WeatherDisplay:10.37,2013-02-27 04:10:00,
2013-02-26 20:15:00,43.7,33.1,29.55,South,180,0.0,0.0,66,0.00,CLR,,0.00,WeatherDisplay:10.37,2013-02-27 04:15:00,
2013-02-26 20:20:00,43.7,32.7,29.56,East,90,0.0,0.0,65,0.00,CLR,,0.00,WeatherDisplay:10.37,2013-02-27 04:20:00,
2013-02-26 20:25:00,43.9,32.5,29.56,SW,225,0.0,0.0,64,0.00,CLR,,0.00,WeatherDisplay:10.37,2013-02-27 04:25:00,
2013-02-26 20:30:00,43.9,32.5,29.56,SE,135,0.0,0.0,64,0.00,CLR,,0.00,WeatherDisplay:10.37,2013-02-27 04:30:00,
2013-02-26 20:35:00,43.9,32.5,29.55,SSE,158,0.0,0.0,64,0.00,CLR,,0.00,WeatherDisplay:10.37,2013-02-27 04:35:00,
2013-02-26 20:40:00,43.9,32.5,29.56,SE,135,0.0,0.0,64,0.00,CLR,,0.00,WeatherDisplay:10.37,2013-02-27 04:40:00,
2013-02-26 20:45:00,43.9,32.5,29.56,East,90,0.0,0.0,64,0.00,CLR,,0.00,WeatherDisplay:10.37,2013-02-27 04:45:00,
2013-02-26 20:50:00,43.9,32.5,29.56,South,180,0.0,0.0,64,0.00,CLR,,0.00,WeatherDisplay:10.37,2013-02-27 04:50:00,
2013-02-26 20:55:00,43.9,32.5,29.56,NE,45,0.0,0.0,64,0.00,CLR,,0.00,WeatherDisplay:10.37,2013-02-27 04:55:00,
2013-02-26 21:00:00,43.9,32.5,29.56,SW,225,0.0,0.0,64,0.00,CLR,,0.00,WeatherDisplay:10.37,2013-02-27 05:00:00,
2013-02-26 21:05:00,43.9,32.5,29.56,SE,135,0.0,0.0,64,0.00,CLR,,0.00,WeatherDisplay:10.37,2013-02-27 05:05:00,
2013-02-26 21:10:00,43.9,32.5,29.57,East,90,0.0,0.0,64,0.00,CLR,,0.00,WeatherDisplay:10.37,2013-02-27 05:10:00,
2013-02-26 21:15:00,43.9,32.9,29.56,SE,135,0.0,0.0,65,0.00,CLR,,0.00,WeatherDisplay:10.37,2013-02-27 05:15:00,
2013-02-26 21:20:00,43.7,32.7,29.55,South,180,0.0,0.0,65,0.00,CLR,,0.00,WeatherDisplay:10.37,2013-02-27 05:20:00,
2013-02-26 21:25:00,43.7,32.7,29.56,SE,135,0.0,0.0,65,0.00,CLR,,0.00,WeatherDisplay:10.37,2013-02-27 05:25:00,
2013-02-26 21:30:00,43.7,32.7,29.55,SE,135,0.0,0.0,65,0.00,CLR,,0.00,WeatherDisplay:10.37,2013-02-27 05:30:00,
2013-02-26 21:35:00,43.7,32.7,29.55,SE,135,0.0,0.0,65,0.00,CLR,,0.00,WeatherDisplay:10.37,2013-02-27 05:35:00,
2013-02-26 21:40:00,43.7,32.7,29.55,South,180,0.0,0.0,65,0.00,CLR,,0.00,WeatherDisplay:10.37,2013-02-27 05:40:00,
2013-02-26 21:45:00,43.5,32.9,29.55,East,90,0.0,0.0,66,0.00,CLR,,0.00,WeatherDisplay:10.37,2013-02-27 05:45:00,
2013-02-26 21:50:00,43.5,32.9,29.55,SE,135,0.0,0.0,66,0.00,CLR,,0.00,WeatherDisplay:10.37,2013-02-27 05:50:00,
2013-02-26 21:55:00,43.3,32.7,29.55,SE,135,0.0,0.0,66,0.00,CLR,,0.00,WeatherDisplay:10.37,2013-02-27 05:55:00,
2013-02-26 22:00:00,43.3,33.1,29.55,SE,135,0.0,0.0,67,0.00,CLR,,0.00,WeatherDisplay:10.37,2013-02-27 06:00:00,
2013-02-26 22:05:00,43.2,32.9,29.55,NW,315,0.0,0.0,67,0.00,CLR,,0.00,WeatherDisplay:10.37,2013-02-27 06:05:00,
2013-02-26 22:10:00,43.2,33.3,29.54,NE,45,0.0,0.0,68,0.00,CLR,,0.00,WeatherDisplay:10.37,2013-02-27 06:10:00,
2013-02-26 22:15:00,43.2,33.3,29.55,SW,225,0.0,0.0,68,0.00,CLR,,0.00,WeatherDisplay:10.37,2013-02-27 06:15:00,
2013-02-26 22:20:00,43.2,33.3,29.55,East,90,0.0,0.0,68,0.00,CLR,,0.00,WeatherDisplay:10.37,2013-02-27 06:20:00,
2013-02-26 22:25:00,43.0,33.5,29.55,SE,135,0.0,0.0,69,0.00,CLR,,0.00,WeatherDisplay:10.37,2013-02-27 06:25:00,
2013-02-26 22:30:00,43.0,33.5,29.55,East,90,0.0,0.0,69,0.00,CLR,,0.00,WeatherDisplay:10.37,2013-02-27 06:30:00,
2013-02-26 22:35:00,43.0,33.9,29.55,SE,135,0.0,0.0,70,0.00,CLR,,0.00,WeatherDisplay:10.37,2013-02-27 06:35:00,
2013-02-26 22:40:00,43.0,33.9,29.55,NE,45,0.0,0.0,70,0.00,CLR,,0.00,WeatherDisplay:10.37,2013-02-27 06:40:00,
2013-02-26 22:45:00,43.0,33.9,29.55,South,180,0.0,0.0,70,0.00,CLR,,0.00,WeatherDisplay:10.37,2013-02-27 06:45:00,
2013-02-26 22:50:00,42.8,34.0,29.55,SW,225,0.0,0.0,71,0.00,CLR,,0.00,WeatherDisplay:10.37,2013-02-27 06:50:00,
2013-02-26 22:55:00,42.8,34.0,29.55,West,270,0.0,0.0,71,0.00,CLR,,0.00,WeatherDisplay:10.37,2013-02-27 06:55:00,
2013-02-26 23:00:00,42.8,34.0,29.55,North,0,0.0,0.0,71,0.00,CLR,,0.00,WeatherDisplay:10.37,2013-02-27 07:00:00,
2013-02-26 23:05:00,42.8,34.4,29.55,East,90,0.0,0.0,72,0.00,CLR,,0.00,WeatherDisplay:10.37,2013-02-27 07:05:00,
2013-02-26 23:10:00,42.6,34.2,29.55,SE,135,0.0,0.0,72,0.00,CLR,,0.00,WeatherDisplay:10.37,2013-02-27 07:10:00,
2013-02-26 23:15:00,42.6,34.6,29.55,South,180,0.0,0.0,73,0.00,CLR,,0.00,WeatherDisplay:10.37,2013-02-27 07:15:00,
2013-02-26 23:20:00,42.6,34.9,29.55,South,180,0.0,0.0,74,0.00,CLR,,0.00,WeatherDisplay:10.37,2013-02-27 07:20:00,
2013-02-26 23:25:00,42.4,35.1,29.55,East,90,0.0,0.0,75,0.00,CLR,,0.00,WeatherDisplay:10.37,2013-02-27 07:25:00,
2013-02-26 23:30:00,42.1,35.4,29.55,SW,225,0.0,0.0,77,0.00,CLR,,0.00,WeatherDisplay:10.37,2013-02-27 07:30:00,
2013-02-26 23:35:00,41.7,35.7,29.55,SE,135,0.0,0.0,79,0.01,RA,,0.01,WeatherDisplay:10.37,2013-02-27 07:35:00,
2013-02-26 23:40:00,41.4,35.7,29.55,SE,135,0.0,0.0,80,0.01,RA,,0.01,WeatherDisplay:10.37,2013-02-27 07:40:00,
2013-02-26 23:45:00,41.0,35.9,29.55,South,180,0.0,0.0,82,0.01,,,0.01,WeatherDisplay:10.37,2013-02-27 07:45:00,
2013-02-26 23:50:00,40.8,36.1,29.55,North,0,0.0,0.0,83,0.01,CLR,,0.01,WeatherDisplay:10.37,2013-02-27 07:50:00,
2013-02-26 23:55:00,40.6,36.2,29.55,South,180,0.0,0.0,84,0.01,CLR,,0.01,WeatherDisplay:10.37,2013-02-27 07:55:00,